地図

経路データ

SID SEASON NUMBER BASIN SUBBASIN NAME ISO_TIME NATURE LAT LON WMO_WIND WMO_PRES WMO_AGENCY TRACK_TYPE DIST2LAND LANDFALL IFLAG USA_AGENCY USA_ATCF_ID USA_LAT USA_LON USA_RECORD USA_STATUS USA_WIND USA_PRES USA_SSHS USA_R34_NE USA_R34_SE USA_R34_SW USA_R34_NW USA_R50_NE USA_R50_SE USA_R50_SW USA_R50_NW USA_R64_NE USA_R64_SE USA_R64_SW USA_R64_NW USA_POCI USA_ROCI USA_RMW USA_EYE TOKYO_LAT TOKYO_LON TOKYO_GRADE TOKYO_WIND TOKYO_PRES TOKYO_R50_DIR TOKYO_R50_LONG TOKYO_R50_SHORT TOKYO_R30_DIR TOKYO_R30_LONG TOKYO_R30_SHORT TOKYO_LAND CMA_LAT CMA_LON CMA_CAT CMA_WIND CMA_PRES HKO_LAT HKO_LON HKO_CAT HKO_WIND HKO_PRES NEWDELHI_LAT NEWDELHI_LON NEWDELHI_GRADE NEWDELHI_WIND NEWDELHI_PRES NEWDELHI_CI NEWDELHI_DP NEWDELHI_POCI REUNION_LAT REUNION_LON REUNION_TYPE REUNION_WIND REUNION_PRES REUNION_TNUM REUNION_CI REUNION_RMW REUNION_R34_NE REUNION_R34_SE REUNION_R34_SW REUNION_R34_NW REUNION_R50_NE REUNION_R50_SE REUNION_R50_SW REUNION_R50_NW REUNION_R64_NE REUNION_R64_SE REUNION_R64_SW REUNION_R64_NW BOM_LAT BOM_LON BOM_TYPE BOM_WIND BOM_PRES BOM_TNUM BOM_CI BOM_RMW BOM_R34_NE BOM_R34_SE BOM_R34_SW BOM_R34_NW BOM_R50_NE BOM_R50_SE BOM_R50_SW BOM_R50_NW BOM_R64_NE BOM_R64_SE BOM_R64_SW BOM_R64_NW BOM_ROCI BOM_POCI BOM_EYE BOM_POS_METHOD BOM_PRES_METHOD NADI_LAT NADI_LON NADI_CAT NADI_WIND NADI_PRES WELLINGTON_LAT WELLINGTON_LON WELLINGTON_WIND WELLINGTON_PRES DS824_LAT DS824_LON DS824_STAGE DS824_WIND DS824_PRES TD9636_LAT TD9636_LON TD9636_STAGE TD9636_WIND TD9636_PRES TD9635_LAT TD9635_LON TD9635_WIND TD9635_PRES TD9635_ROCI NEUMANN_LAT NEUMANN_LON NEUMANN_CLASS NEUMANN_WIND NEUMANN_PRES MLC_LAT MLC_LON MLC_CLASS MLC_WIND MLC_PRES USA_GUST BOM_GUST BOM_GUST_PER REUNION_GUST REUNION_GUST_PER USA_SEAHGT USA_SEARAD_NE USA_SEARAD_SE USA_SEARAD_SW USA_SEARAD_NW STORM_SPEED STORM_DIR
1885262N15093 1885 42 NI BB NOT_NAMED 1885-09-19 00:00:00 TS 14.6000 92.8000 main 217 209 _________O____ -1 14.6000 92.8000 TC 45 2 336
1885262N15093 1885 42 NI BB NOT_NAMED 1885-09-19 03:00:00 TS 14.7083 92.7400 main 216 209 _________PO___ -1 14.7625 92.7100 TC 45 14.6000 92.8000 3 3 325
1885262N15093 1885 42 NI BB NOT_NAMED 1885-09-19 06:00:00 TS 14.8332 92.6301 main 217 211 _________OP___ -1 14.9000 92.6000 TC 45 14.7329 92.6752 3 3 315
1885262N15093 1885 42 NI BB NOT_NAMED 1885-09-19 09:00:00 TS 14.9411 92.4972 main 219 213 _________PP___ -1 15.0000 92.4575 TC 45 14.8626 92.5503 3 3 309
1885262N15093 1885 42 NI BB NOT_NAMED 1885-09-19 12:00:00 TS 15.0430 92.3626 main 223 223 _________OP___ -1 15.1000 92.3000 TC 45 14.9860 92.4252 3 4 312
1885262N15093 1885 42 NI BB NOT_NAMED 1885-09-19 15:00:00 TS 15.1750 92.2250 main 232 232 _________PO___ -1 15.2500 92.1500 TC 45 15.1000 92.3000 3 4 314
1885262N15093 1885 42 NI BB NOT_NAMED 1885-09-19 18:00:00 TS 15.3023 92.0866 main 238 238 _________OP___ -1 15.4000 92.0000 TC 45 15.2046 92.1732 3 3 310
1885262N15093 1885 42 NI BB NOT_NAMED 1885-09-19 21:00:00 TS 15.3986 91.9510 main 244 244 _________PP___ -1 15.4850 91.8649 TC 45 15.3123 92.0371 3 4 307
1885262N15093 1885 42 NI BB NOT_NAMED 1885-09-20 00:00:00 TS 15.5195 91.7912 main 262 262 _________OP___ -1 15.6000 91.7000 TC 45 15.4389 91.8825 3 5 312
1885262N15093 1885 42 NI BB NOT_NAMED 1885-09-20 03:00:00 TS 15.7138 91.5825 main 280 280 _________PO___ -1 15.8275 91.4650 TC 45 15.6000 91.7000 3 6 316
1885262N15093 1885 42 NI BB NOT_NAMED 1885-09-20 06:00:00 TS 15.9611 91.3435 main 310 310 _________OP___ -1 16.1000 91.2000 TC 45 15.8222 91.4870 3 7 317
1885262N15093 1885 42 NI BB NOT_NAMED 1885-09-20 09:00:00 TS 16.2175 91.1013 main 332 332 _________PP___ -1 16.3574 90.9574 TC 45 16.0775 91.2452 3 7 317
1885262N15093 1885 42 NI BB NOT_NAMED 1885-09-20 12:00:00 TS 16.4720 90.8404 main 367 367 _________OP___ -1 16.6000 90.7000 TC 45 16.3440 90.9807 3 7 313
1885262N15093 1885 42 NI BB NOT_NAMED 1885-09-20 15:00:00 TS 16.7037 90.5537 main 392 392 _________PO___ -1 16.8075 90.4074 TC 45 16.6000 90.7000 3 7 308
1885262N15093 1885 42 NI BB NOT_NAMED 1885-09-20 18:00:00 TS 16.8928 90.2710 main 428 428 _________OP___ -1 17.0000 90.1000 TC 45 16.7856 90.4419 3 6 304
1885262N15093 1885 42 NI BB NOT_NAMED 1885-09-20 21:00:00 TS 17.0696 89.9979 main 445 445 _________PP___ -1 17.1773 89.8297 TC 45 16.9619 90.1661 3 7 304
1885262N15093 1885 42 NI BB NOT_NAMED 1885-09-21 00:00:00 TS 17.2787 89.6786 main 460 414 _________OP___ -1 17.4000 89.5000 TC 45 17.1573 89.8573 3 9 305
1885262N15093 1885 42 NI BB NOT_NAMED 1885-09-21 03:00:00 TS 17.5601 89.2613 main 406 344 _________PO___ -1 17.7201 89.0226 TC 45 17.4000 89.5000 3 11 307
1885262N15093 1885 42 NI BB NOT_NAMED 1885-09-21 06:00:00 TS 17.9105 88.7838 main 344 275 _________OP___ -1 18.1000 88.5000 TC 45 17.7210 89.0676 3 12 309
1885262N15093 1885 42 NI BB NOT_NAMED 1885-09-21 09:00:00 TS 18.2914 88.3151 main 275 214 _________PP___ -1 18.4923 88.0423 TC 45 18.0905 88.5879 3 12 311
1885262N15093 1885 42 NI BB NOT_NAMED 1885-09-21 12:00:00 TS 18.6948 87.8446 main 206 145 _________OP___ -1 18.9000 87.6000 TC 45 18.4897 88.0892 3 12 312
1885262N15093 1885 42 NI BB NOT_NAMED 1885-09-21 15:00:00 TS 19.1000 87.3712 main 145 76 _________PO___ -1 19.2999 87.1423 TC 41 18.9000 87.6000 3 12 313
1885262N15093 1885 42 NI BB NOT_NAMED 1885-09-21 18:00:00 TS 19.5004 86.9201 main 76 15 _________OP___ -1 19.7000 86.7000 TC 37 19.3007 87.1402 3 12 314
1885262N15093 1885 42 NI BB NOT_NAMED 1885-09-21 21:00:00 TS 19.9074 86.4874 main 15 0 _________PP___ -1 20.1074 86.2774 TC 33 19.7073 86.6974 3 11 316
1885262N15093 1885 42 NI BB NOT_NAMED 1885-09-22 00:00:00 TS 20.3051 86.0904 main 0 0 _________OP___ -1 20.5000 85.9000 TC 30 20.1102 86.2809 3 10 318
1885262N15093 1885 42 NI BB NOT_NAMED 1885-09-22 03:00:00 TS 20.6787 85.7424 main 0 0 _________PO___ -1 20.8574 85.5847 TC 30 20.5000 85.9000 1 10 320
1885262N15093 1885 42 NI BB NOT_NAMED 1885-09-22 06:00:00 TS 21.0299 85.4295 main 0 0 _________OP___ -1 21.2000 85.3000 TC 30 20.8598 85.5591 1 9 321
1885262N15093 1885 42 NI BB NOT_NAMED 1885-09-22 09:00:00 TS 21.3784 85.1268 main 0 0 _________PP___ -1 21.5499 84.9999 TC 30 21.2069 85.2538 1 9 322
1885262N15093 1885 42 NI BB NOT_NAMED 1885-09-22 12:00:00 TS 21.7253 84.8358 main 0 0 _________OP___ -1 21.9000 84.7000 TC 30 21.5505 84.9716 1 9 322
1885262N15093 1885 42 NI BB NOT_NAMED 1885-09-22 15:00:00 TS 22.0712 84.5462 main 0 0 _________PO___ -1 22.2425 84.3924 TC 30 21.9000 84.7000 1 9 323
1885262N15093 1885 42 NI BB NOT_NAMED 1885-09-22 18:00:00 TS 22.4583 84.2410 main 0 0 _________OP___ -1 22.6000 84.1000 TC 30 22.3167 84.3819 1 10 326
1885262N15093 1885 42 NI BB NOT_NAMED 1885-09-22 21:00:00 TS 22.8889 83.9444 main 0 0 _________PP___ -1 23.0450 83.8127 TC 30 22.7327 84.0760 1 9 328
1885262N15093 1885 42 NI BB NOT_NAMED 1885-09-23 00:00:00 TS 23.2537 83.7035 main 0 0 _________OP___ -1 23.4000 83.6000 TC 30 23.1073 83.8070 1 7 328
1885262N15093 1885 42 NI BB NOT_NAMED 1885-09-23 03:00:00 TS 23.4475 83.5599 main 0 0 _________PO___ -1 23.4949 83.5197 TC 30 23.4000 83.6000 1 3 325
1885262N15093 1885 42 NI BB NOT_NAMED 1885-09-23 06:00:00 TS 23.5284 83.4922 main 0 0 _________OP___ -1 23.5000 83.5000 TC 30 23.5569 83.4844 1 2 326
1885262N15093 1885 42 NI BB NOT_NAMED 1885-09-23 09:00:00 TS 23.6123 83.4407 main 0 0 _________PP___ -1 23.5925 83.4500 TC 30 23.6321 83.4314 1 2 334
1885262N15093 1885 42 NI BB NOT_NAMED 1885-09-23 12:00:00 TS 23.6832 83.4064 main 0 0 _________OP___ -1 23.7000 83.4000 TC 30 23.6663 83.4128 1 2 338
1885262N15093 1885 42 NI BB NOT_NAMED 1885-09-23 15:00:00 TS 23.7500 83.3750 main 0 0 _________PO___ -1 23.8000 83.3500 TC 30 23.7000 83.4000 1 2 341
1885262N15093 1885 42 NI BB NOT_NAMED 1885-09-23 18:00:00 TS 23.8229 83.3400 main 0 0 _________OP___ -1 23.9000 83.3000 TC 30 23.7651 83.3701 1 2 334
1885262N15093 1885 42 NI BB NOT_NAMED 1885-09-23 21:00:00 TS 23.9161 83.2938 main 0 0 _________PP___ -1 24.0000 83.2500 TC 30 23.8602 83.3230 1 2 335
1885262N15093 1885 42 NI BB NOT_NAMED 1885-09-24 00:00:00 TS 24.0167 83.2429 main 0 0 _________OP___ -1 24.1000 83.2000 TC 30 23.9751 83.2644 1 2 333
1885262N15093 1885 42 NI BB NOT_NAMED 1885-09-24 03:00:00 NR 24.1000 83.2000 main 0 __________O___ -1 TC 24.1000 83.2000 1 2 340

IBTrACS Databaseについて

本データベースは、米国NOAAが公開する1842年以降の世界の熱帯低気圧のベストトラックデータアーカイブInternational Best Track Archive for Climate Stewardship (IBTrACS)を、ウェブで閲覧しやすい形式に変換したものです。

最終更新日:2021-10-27